logo dgac
Sábado 29 de Abril del 2017
Buscar por aerodromo o helipuerto
Ingrese nombre de aeródromo, localidad o designador OACI:

Buscar por Fir

METAR del 29-04-2017 a las 05:00 UTC
METAR SCVM 290500Z 14005KT CAVOK 11/09 Q1014
Viento: dirección 140 grados, velocidad 5 nudos
Visibilidad: 10 km o más,
    sin nubes bajo los 5.000 pies o bajo del MSA (Mínimo de Seguridad del Aeródromo),
    sin cumulonimbus, y sin fenómenos de tiempo significativo en el aeródromo o alrededores
Temperatura: 11 °C
Rocío: 9 °C
Humedad_relativa: 87%
Presión: 1014 hPa
METAR del 29-04-2017 a las 04:00 UTC
METAR SCVM 290400Z 15003KT CAVOK 12/10 Q1015
Viento: dirección 150 grados, velocidad 3 nudos
Visibilidad: 10 km o más,
    sin nubes bajo los 5.000 pies o bajo del MSA (Mínimo de Seguridad del Aeródromo),
    sin cumulonimbus, y sin fenómenos de tiempo significativo en el aeródromo o alrededores
Temperatura: 12 °C
Rocío: 10 °C
Humedad_relativa: 88%
Presión: 1015 hPa
METAR del 29-04-2017 a las 03:00 UTC
METAR SCVM 290300Z 00000KT CAVOK 13/10 Q1015
Visibilidad: 10 km o más,
    sin nubes bajo los 5.000 pies o bajo del MSA (Mínimo de Seguridad del Aeródromo),
    sin cumulonimbus, y sin fenómenos de tiempo significativo en el aeródromo o alrededores
Temperatura: 13 °C
Rocío: 10 °C
Humedad_relativa: 82%
Presión: 1015 hPa
METAR del 29-04-2017 a las 02:00 UTC
METAR SCVM 290200Z 28003KT CAVOK 15/12 Q1015
Viento: dirección 280 grados, velocidad 3 nudos
Visibilidad: 10 km o más,
    sin nubes bajo los 5.000 pies o bajo del MSA (Mínimo de Seguridad del Aeródromo),
    sin cumulonimbus, y sin fenómenos de tiempo significativo en el aeródromo o alrededores
Temperatura: 15 °C
Rocío: 12 °C
Humedad_relativa: 82%
Presión: 1015 hPa
METAR del 29-04-2017 a las 01:00 UTC
METAR SCVM 290100Z 21003KT CAVOK 19/12 Q1015
Viento: dirección 210 grados, velocidad 3 nudos
Visibilidad: 10 km o más,
    sin nubes bajo los 5.000 pies o bajo del MSA (Mínimo de Seguridad del Aeródromo),
    sin cumulonimbus, y sin fenómenos de tiempo significativo en el aeródromo o alrededores
Temperatura: 19 °C
Rocío: 12 °C
Humedad_relativa: 64%
Presión: 1015 hPa
METAR del 29-04-2017 a las 00:00 UTC
METAR SCVM 290000Z 22003KT CAVOK 17/11 Q1014
Viento: dirección 220 grados, velocidad 3 nudos
Visibilidad: 10 km o más,
    sin nubes bajo los 5.000 pies o bajo del MSA (Mínimo de Seguridad del Aeródromo),
    sin cumulonimbus, y sin fenómenos de tiempo significativo en el aeródromo o alrededores
Temperatura: 17 °C
Rocío: 11 °C
Humedad_relativa: 68%
Presión: 1014 hPa
METAR del 28-04-2017 a las 23:00 UTC
METAR SCVM 282300Z 27004KT CAVOK 18/12 Q1014
Viento: dirección 270 grados, velocidad 4 nudos
Visibilidad: 10 km o más,
    sin nubes bajo los 5.000 pies o bajo del MSA (Mínimo de Seguridad del Aeródromo),
    sin cumulonimbus, y sin fenómenos de tiempo significativo en el aeródromo o alrededores
Temperatura: 18 °C
Rocío: 12 °C
Humedad_relativa: 68%
Presión: 1014 hPa
METAR del 28-04-2017 a las 22:00 UTC
METAR SCVM 282200Z 31006KT CAVOK 20/12 Q1014
Viento: dirección 310 grados, velocidad 6 nudos
Visibilidad: 10 km o más,
    sin nubes bajo los 5.000 pies o bajo del MSA (Mínimo de Seguridad del Aeródromo),
    sin cumulonimbus, y sin fenómenos de tiempo significativo en el aeródromo o alrededores
Temperatura: 20 °C
Rocío: 12 °C
Humedad_relativa: 60%
Presión: 1014 hPa
METAR del 28-04-2017 a las 21:00 UTC
METAR SCVM 282100Z 30006KT CAVOK 22/13 Q1013
Viento: dirección 300 grados, velocidad 6 nudos
Visibilidad: 10 km o más,
    sin nubes bajo los 5.000 pies o bajo del MSA (Mínimo de Seguridad del Aeródromo),
    sin cumulonimbus, y sin fenómenos de tiempo significativo en el aeródromo o alrededores
Temperatura: 22 °C
Rocío: 13 °C
Humedad_relativa: 57%
Presión: 1013 hPa
METAR del 28-04-2017 a las 20:00 UTC
METAR SCVM 282000Z 30008KT CAVOK 23/13 Q1013
Viento: dirección 300 grados, velocidad 8 nudos
Visibilidad: 10 km o más,
    sin nubes bajo los 5.000 pies o bajo del MSA (Mínimo de Seguridad del Aeródromo),
    sin cumulonimbus, y sin fenómenos de tiempo significativo en el aeródromo o alrededores
Temperatura: 23 °C
Rocío: 13 °C
Humedad_relativa: 53%
Presión: 1013 hPa